Little Rock Air Force Base
KLRF : now visible

Airfield :











YOU CAN JOIN US ON...

 
LOGIN :

Register | Disclaimer

   EN    FR    IT 

 









Legend :    VFR   Marginal VFR   IFR   Intensive IFR   Very Intensive IFR
Visi :
Ceiling :
>= 8 km
>= 3000ft
5 to 8 km
1000 to 3000 ft
1500m to 5 km
500 to 1000 ft
800 to 1500m
200 to 500 ft
< 800m
< 200 ft
Symbols :   Thunderstorms  Fog  Heavy snow  Heavy precipitations  Wind > 20 kt






- Airport Elevation : 311 ft


KLRF - Little Rock Air Force Base

CURRENT METAR :
  • 181256Z AUTO 00000KT 10SM FEW040 BKN170 21/17 A2996 RMK AO2 SLP146 T02060174

EXPIRED METARs :
  • 181156Z AUTO 01003KT 10SM BKN200 20/17 A2991 RMK AO2 SLP129 T01960172 10203 20165 50004
  • 181056Z AUTO 17004KT 10SM CLR 17/16 A2988 RMK AO2 SLP119 T01710156

TAF TAF KLRF
Valid from the 18 at 07:00 until the 19 at 13:00 UTC


180700Z 1807/1913 VRB06KT 9999 FEW180 WS020/19030KT QNH2988INS
BECMG 1814/1815 22012G20KT 9999 FEW200 QNH2983INS
BECMG 1823/1824 23009KT 9999 FEW150 QNH2976INS
BECMG 1905/1906 20006KT 9999 FEW200 QNH2982INS TX32/1821Z TN16/1811Z
KZME FIR / North America



MET'MAP, your aeronautical weather chart ! - Copyright ORBIFLY December 2007 - Disclaimer

ORBIFLY MET'MAP TEAM :

Programming & Development : Alexandra Zaïnal
Original concept : Baudouin d'Aumeries
Technical & hardware support : Manuel Goepfert
Assistance : Marc-Olivier Méhu

Contact : metmap@orbifly.com




SOURCES & CREDITS :

   NOAA       Earth
Advisory